This is the latest recevied weather packets stored in our database for station/object OM2RC-6. If no packets are shown the sender has not sent any weather packets the latest 10 day(s).
| Time | Temp. | Humidity | Pressure | Rain* | Wind** | Luminosity | Snow |
|---|---|---|---|---|---|---|---|
| 1778154615 | 20° C | 69% | 1014.5 hPa | - | - | - | - |
| 1778154314 | 22.22° C | 63% | 1014.3 hPa | - | - | - | - |
| 1778154013 | 20.56° C | 70% | 1014.5 hPa | - | - | - | - |
| 1778153712 | 18.33° C | 77% | 1014.6 hPa | - | - | - | - |
| 1778153411 | 17.78° C | 79% | 1014.7 hPa | - | - | - | - |
| 1778153110 | 17.22° C | 80% | 1014.7 hPa | - | - | - | - |
| 1778152808 | 17.78° C | 79% | 1014.6 hPa | - | - | - | - |
| 1778152507 | 17.22° C | 78% | 1014.7 hPa | - | - | - | - |
| 1778152206 | 17.22° C | 78% | 1014.8 hPa | - | - | - | - |
| 1778151604 | 17.22° C | 79% | 1014.9 hPa | - | - | - | - |
| 1778151303 | 17.22° C | 78% | 1014.9 hPa | - | - | - | - |
| 1778150701 | 17.78° C | 78% | 1015 hPa | - | - | - | - |
| 1778150097 | 17.22° C | 83% | 1015.1 hPa | - | - | - | - |
| 1778149795 | 17.78° C | 83% | 1014.9 hPa | - | - | - | - |
| 1778149193 | 17.78° C | 83% | 1015 hPa | - | - | - | - |
| 1778148893 | 17.78° C | 83% | 1015.1 hPa | - | - | - | - |
| 1778148592 | 17.22° C | 84% | 1015 hPa | - | - | - | - |
| 1778148290 | 16.67° C | 84% | 1015 hPa | - | - | - | - |
| 1778147684 | 16.67° C | 87% | 1015 hPa | - | - | - | - |
| 1778147383 | 16.67° C | 88% | 1014.9 hPa | - | - | - | - |
| 1778147081 | 16.67° C | 89% | 1014.9 hPa | - | - | - | - |
| 1778146775 | 16.67° C | 88% | 1014.9 hPa | - | - | - | - |
| 1778146173 | 16.67° C | 85% | 1014.8 hPa | - | - | - | - |
| 1778145870 | 17.22° C | 86% | 1014.8 hPa | - | - | - | - |
| 1778145267 | 16.67° C | 89% | 1014.5 hPa | - | - | - | - |
* Rain since midnight (hover to see other rain measurements)
** Current wind speed in m/s (hover to see current wind gust speed)